createdAt,value
2022-12-19T00:01:33.873Z,39.57
2022-12-19T00:04:08.372Z,40.13
2022-12-19T00:06:37.045Z,39.93
2022-12-19T00:09:04.080Z,40.70
2022-12-19T00:11:31.510Z,39.93
2022-12-19T00:13:59.057Z,40.30
2022-12-19T00:16:28.127Z,41.70
2022-12-19T00:18:56.881Z,40.97
2022-12-19T00:21:26.028Z,40.10
2022-12-19T00:23:53.107Z,40.67
2022-12-19T00:26:25.528Z,39.63
2022-12-19T00:28:54.699Z,39.70
2022-12-19T00:31:24.349Z,39.33
2022-12-19T00:33:51.208Z,40.87
2022-12-19T00:36:23.789Z,39.63
2022-12-19T00:38:52.408Z,40.03
2022-12-19T00:41:22.168Z,39.03
2022-12-19T00:44:00.294Z,41.47
2022-12-19T00:46:27.906Z,40.53
2022-12-19T00:48:55.401Z,41.23
2022-12-19T00:51:24.608Z,41.80
2022-12-19T00:53:53.292Z,40.63
2022-12-19T00:56:29.882Z,41.93
2022-12-19T00:58:57.309Z,40.30
2022-12-19T01:01:27.970Z,40.93
2022-12-19T01:06:42.376Z,38.97
2022-12-19T01:09:11.152Z,40.63
2022-12-19T01:11:56.260Z,40.20
2022-12-19T01:14:23.666Z,41.43
2022-12-19T01:16:51.373Z,41.77
2022-12-19T01:19:18.128Z,41.30
2022-12-19T01:21:45.089Z,40.93
2022-12-19T01:24:12.404Z,41.57
2022-12-19T01:26:40.491Z,41.40
2022-12-19T01:29:07.214Z,40.10
2022-12-19T01:31:34.161Z,41.07
2022-12-19T01:34:01.495Z,40.87
2022-12-19T01:36:28.496Z,41.03
2022-12-19T01:38:57.800Z,41.07
2022-12-19T01:41:24.627Z,39.90
2022-12-19T01:44:00.916Z,42.47
2022-12-19T01:46:34.014Z,42.67
2022-12-19T01:49:02.626Z,40.67
2022-12-19T01:51:37.396Z,41.90
2022-12-19T01:54:07.796Z,40.83
2022-12-19T01:56:42.583Z,41.83
2022-12-19T01:59:16.737Z,41.90
2022-12-19T02:01:51.766Z,40.80
2022-12-19T02:04:20.343Z,40.30
2022-12-19T02:06:48.410Z,41.00
2022-12-19T02:09:15.982Z,40.37
2022-12-19T02:11:42.568Z,39.83
2022-12-19T02:14:09.369Z,39.17
2022-12-19T02:16:57.363Z,39.13
2022-12-19T02:19:48.442Z,39.27
2022-12-19T02:22:40.977Z,39.40
2022-12-19T02:25:19.418Z,38.70
2022-12-19T02:28:06.722Z,39.70
2022-12-19T02:31:13.801Z,39.47
2022-12-19T02:34:05.919Z,37.00
2022-12-19T02:36:43.423Z,38.97
2022-12-19T02:39:18.599Z,38.23
2022-12-19T02:41:52.833Z,40.30
2022-12-19T02:44:26.117Z,39.57
2022-12-19T02:46:53.447Z,40.37
2022-12-19T02:49:24.908Z,37.63
2022-12-19T02:51:57.515Z,39.70
2022-12-19T02:54:24.827Z,39.17
2022-12-19T02:57:05.181Z,40.43
2022-12-19T03:00:03.541Z,38.20
2022-12-19T03:02:53.846Z,37.77
2022-12-19T03:05:31.595Z,38.43
2022-12-19T03:07:58.139Z,40.73
2022-12-19T03:10:36.777Z,40.17
2022-12-19T03:13:12.119Z,39.33
2022-12-19T03:15:41.638Z,40.63
2022-12-19T03:18:08.580Z,38.93
2022-12-19T03:20:44.868Z,38.40
2022-12-19T03:23:12.941Z,39.10
2022-12-19T03:25:42.868Z,39.13
2022-12-19T03:28:14.120Z,39.73
2022-12-19T03:30:44.508Z,40.13
2022-12-19T03:33:13.729Z,40.50
2022-12-19T03:35:41.568Z,39.37
2022-12-19T03:38:12.244Z,41.37
2022-12-19T03:40:40.978Z,41.60
2022-12-19T03:43:10.758Z,40.93
2022-12-19T03:45:44.048Z,41.43
2022-12-19T03:48:17.637Z,40.20
2022-12-19T03:50:48.543Z,42.57
2022-12-19T03:53:35.405Z,40.30
2022-12-19T03:56:23.284Z,42.17
2022-12-19T03:58:59.196Z,40.27
2022-12-19T04:01:27.970Z,41.37
2022-12-19T04:03:58.166Z,40.20
2022-12-19T04:06:28.394Z,41.40
2022-12-19T04:08:57.055Z,39.73
2022-12-19T04:11:30.588Z,39.43
2022-12-19T04:14:08.505Z,38.43
2022-12-19T04:16:45.933Z,38.17
2022-12-19T04:19:20.895Z,39.60
2022-12-19T04:21:56.493Z,42.63
2022-12-19T04:24:29.101Z,42.57
2022-12-19T04:26:57.512Z,43.33
2022-12-19T04:29:26.800Z,41.60
2022-12-19T04:31:53.763Z,43.43
2022-12-19T04:34:21.279Z,42.70
2022-12-19T04:36:50.376Z,40.30
2022-12-19T04:39:17.085Z,46.80
2022-12-19T04:41:43.666Z,44.40
2022-12-19T04:44:10.269Z,45.50
2022-12-19T04:46:36.805Z,44.37
2022-12-19T04:49:03.528Z,48.87
2022-12-19T04:51:30.527Z,41.50
2022-12-19T04:53:57.501Z,43.93
2022-12-19T04:56:24.348Z,50.13
2022-12-19T04:58:56.606Z,44.97
2022-12-19T05:01:23.213Z,44.20
2022-12-19T05:03:54.315Z,44.70
2022-12-19T05:06:22.901Z,43.00
2022-12-19T05:08:49.437Z,42.13
2022-12-19T05:11:19.750Z,42.57
2022-12-19T05:13:47.294Z,46.47
2022-12-19T05:16:15.861Z,40.97
2022-12-19T05:18:42.907Z,39.90
2022-12-19T05:21:09.802Z,41.40
2022-12-19T05:23:36.661Z,43.87
2022-12-19T05:26:04.852Z,48.53
2022-12-19T05:28:32.858Z,44.93
2022-12-19T05:31:04.506Z,48.10
2022-12-19T05:33:31.215Z,46.07
2022-12-19T05:35:57.918Z,59.23
2022-12-19T05:38:25.484Z,76.67
2022-12-19T05:40:52.148Z,45.63
2022-12-19T05:43:18.713Z,64.30
2022-12-19T05:45:45.287Z,43.20
2022-12-19T05:48:11.946Z,51.13
2022-12-19T05:50:38.553Z,43.10
2022-12-19T05:53:05.412Z,42.50
2022-12-19T05:55:32.192Z,39.73
2022-12-19T05:57:58.825Z,39.73
2022-12-19T06:00:25.897Z,42.40
2022-12-19T06:02:52.662Z,42.80
2022-12-19T06:05:19.458Z,37.67
2022-12-19T06:07:46.599Z,38.90
2022-12-19T06:10:13.222Z,34.80
2022-12-19T06:12:40.033Z,34.93
2022-12-19T06:15:07.212Z,36.37
2022-12-19T06:17:34.454Z,35.53
2022-12-19T06:20:01.027Z,35.83
2022-12-19T06:22:27.708Z,42.40
2022-12-19T06:24:54.225Z,36.90
2022-12-19T06:27:20.771Z,35.53
2022-12-19T06:29:47.368Z,35.07
2022-12-19T06:32:13.884Z,37.27
2022-12-19T06:35:03.370Z,35.57
2022-12-19T06:37:27.135Z,35.60
2022-12-19T06:39:53.662Z,33.33
2022-12-19T06:42:22.938Z,32.73
2022-12-19T06:44:54.378Z,32.83
2022-12-19T06:47:23.635Z,33.13
2022-12-19T06:49:50.327Z,31.07
2022-12-19T06:52:17.534Z,30.07
2022-12-19T06:54:44.100Z,32.17
2022-12-19T06:57:10.755Z,44.07
2022-12-19T06:59:37.335Z,48.60
2022-12-19T07:02:21.755Z,37.37
2022-12-19T07:04:52.608Z,33.20
2022-12-19T07:07:19.566Z,33.27
2022-12-19T07:09:46.188Z,31.33
2022-12-19T07:12:12.808Z,34.50
2022-12-19T07:14:39.328Z,35.10
2022-12-19T07:17:06.606Z,31.00
2022-12-19T07:19:34.529Z,33.50
2022-12-19T07:22:03.804Z,30.47
2022-12-19T07:24:30.937Z,28.70
2022-12-19T07:26:58.179Z,29.17
2022-12-19T07:29:25.534Z,28.10
2022-12-19T07:31:52.493Z,29.23
2022-12-19T07:34:19.179Z,28.00
2022-12-19T07:36:45.815Z,27.77
2022-12-19T07:39:12.529Z,29.43
2022-12-19T07:41:40.096Z,28.13
2022-12-19T07:44:07.263Z,28.03
2022-12-19T07:46:33.812Z,28.10
2022-12-19T07:49:01.084Z,27.57
2022-12-19T07:51:28.468Z,27.30
2022-12-19T07:53:55.018Z,26.90
2022-12-19T07:56:21.938Z,27.33
2022-12-19T07:58:48.494Z,28.10
2022-12-19T08:01:15.188Z,26.00
2022-12-19T08:03:41.811Z,26.53
2022-12-19T08:06:08.725Z,24.67
2022-12-19T08:08:37.634Z,25.40
2022-12-19T08:11:13.354Z,24.20
2022-12-19T08:13:46.434Z,25.97
2022-12-19T08:16:13.790Z,25.43
2022-12-19T08:18:40.625Z,26.50
2022-12-19T08:21:09.023Z,25.70
2022-12-19T08:23:35.572Z,25.00
2022-12-19T08:26:05.132Z,22.97
2022-12-19T08:28:33.539Z,21.77
2022-12-19T08:31:09.366Z,22.83
2022-12-19T08:33:36.872Z,25.33
2022-12-19T08:36:08.162Z,25.27
2022-12-19T08:38:35.788Z,25.87
2022-12-19T08:41:02.963Z,27.57
2022-12-19T08:43:30.622Z,26.60
2022-12-19T08:45:57.900Z,27.37
2022-12-19T08:48:24.957Z,27.17
2022-12-19T08:50:59.777Z,27.60
2022-12-19T08:53:28.871Z,26.80
2022-12-19T08:55:56.913Z,27.53
2022-12-19T08:58:24.548Z,29.20
2022-12-19T09:00:57.672Z,29.10
2022-12-19T09:03:29.686Z,28.97
2022-12-19T09:06:18.696Z,29.93
2022-12-19T09:08:46.006Z,29.37
2022-12-19T09:11:17.734Z,29.83
2022-12-19T09:13:45.056Z,28.30
2022-12-19T09:16:13.301Z,30.30
2022-12-19T09:18:46.602Z,27.50
2022-12-19T09:21:15.459Z,28.20
2022-12-19T09:23:42.770Z,27.30
2022-12-19T09:26:12.828Z,28.33
2022-12-19T09:28:41.469Z,26.33
2022-12-19T09:31:12.406Z,26.53
2022-12-19T09:33:43.424Z,26.03
2022-12-19T09:36:23.241Z,25.47
2022-12-19T09:38:50.970Z,25.43
2022-12-19T09:41:46.183Z,24.83
2022-12-19T09:44:45.971Z,24.27
2022-12-19T09:47:17.904Z,23.43
2022-12-19T09:49:47.479Z,23.70
2022-12-19T09:52:19.203Z,24.80
2022-12-19T09:55:03.811Z,22.33
2022-12-19T09:57:47.203Z,23.70
2022-12-19T10:00:22.501Z,23.77
2022-12-19T10:03:05.549Z,23.00
2022-12-19T10:07:07.916Z,22.17
2022-12-19T10:10:00.972Z,20.50
2022-12-19T10:12:42.399Z,20.40
2022-12-19T10:15:20.221Z,19.93
2022-12-19T10:18:24.589Z,20.10
2022-12-19T10:21:08.997Z,19.03
2022-12-19T10:24:24.052Z,19.73
2022-12-19T10:26:53.707Z,19.50
2022-12-19T10:29:38.987Z,19.10
2022-12-19T10:32:25.329Z,19.87
2022-12-19T10:34:53.775Z,18.03
2022-12-19T10:37:47.351Z,17.50
2022-12-19T10:40:27.943Z,17.57
2022-12-19T10:43:25.878Z,17.43
2022-12-19T10:46:02.728Z,22.40
2022-12-19T10:48:31.425Z,19.10
2022-12-19T10:50:58.549Z,19.33
2022-12-19T10:53:32.256Z,25.70
2022-12-19T10:56:12.522Z,21.23
2022-12-19T10:58:44.283Z,17.37
2022-12-19T11:01:16.914Z,32.00
2022-12-19T11:03:48.094Z,18.50
2022-12-19T11:06:48.161Z,14.07
2022-12-19T11:09:25.564Z,15.10
2022-12-19T11:14:23.872Z,16.60
2022-12-19T11:20:18.990Z,14.60
2022-12-19T11:29:17.027Z,14.37
2022-12-19T11:29:27.193Z,14.70
2022-12-19T11:30:43.089Z,13.57
2022-12-19T11:30:47.825Z,15.37
2022-12-19T11:32:45.099Z,12.80
2022-12-19T11:35:36.820Z,14.93
2022-12-19T11:38:06.158Z,15.50
2022-12-19T11:40:53.296Z,16.57
2022-12-19T11:43:45.751Z,33.20
2022-12-19T11:46:40.641Z,10.47
2022-12-19T11:49:19.060Z,11.43
2022-12-19T11:52:03.176Z,14.50
2022-12-19T11:54:56.268Z,11.93
2022-12-19T11:57:23.864Z,26.53
2022-12-19T11:59:54.002Z,12.23
2022-12-19T12:02:36.008Z,11.70
2022-12-19T12:05:08.195Z,12.83
2022-12-19T12:08:32.132Z,12.43
2022-12-19T12:13:48.589Z,12.03
2022-12-19T12:23:19.134Z,12.50
2022-12-19T12:31:00.356Z,12.63
2022-12-19T12:31:11.703Z,12.37
2022-12-19T12:31:18.626Z,13.20
2022-12-19T12:31:57.585Z,12.87
2022-12-19T12:32:05.261Z,13.00
2022-12-19T12:35:51.346Z,13.10
2022-12-19T12:40:50.820Z,13.68
2022-12-19T12:43:39.050Z,14.33
2022-12-19T12:46:17.677Z,13.13
2022-12-19T12:48:55.532Z,13.35
2022-12-19T12:51:24.935Z,13.13
2022-12-19T12:54:03.270Z,13.18
2022-12-19T12:56:30.381Z,12.85
2022-12-19T12:58:56.849Z,12.03
2022-12-19T13:01:29.705Z,12.07
2022-12-19T13:04:02.705Z,12.18
2022-12-19T13:06:36.427Z,13.03
2022-12-19T13:09:08.952Z,12.53
2022-12-19T13:11:57.202Z,11.27
2022-12-19T13:14:35.926Z,12.55
2022-12-19T13:17:10.944Z,11.23
2022-12-19T13:19:51.874Z,11.60
2022-12-19T13:22:37.733Z,11.60
2022-12-19T13:25:27.221Z,11.33
2022-12-19T13:28:04.170Z,10.93
2022-12-19T13:30:46.242Z,11.00
2022-12-19T13:33:21.002Z,9.93
2022-12-19T13:39:44.906Z,10.13
2022-12-19T13:40:00.504Z,10.32
2022-12-19T13:42:00.893Z,13.17
2022-12-19T13:44:28.276Z,12.20
2022-12-19T13:46:56.004Z,11.70
2022-12-19T13:49:35.644Z,12.07
2022-12-19T13:52:03.926Z,12.17
2022-12-19T13:54:34.862Z,11.20
2022-12-19T13:57:06.345Z,10.10
2022-12-19T13:59:39.921Z,9.60
2022-12-19T14:02:16.016Z,10.20
2022-12-19T14:04:44.764Z,9.90
2022-12-19T14:07:42.179Z,8.43
2022-12-19T14:11:44.278Z,8.73
2022-12-19T14:13:49.045Z,8.50
2022-12-19T14:16:44.079Z,8.50
2022-12-19T14:19:28.981Z,7.85
2022-12-19T14:22:15.910Z,8.03
2022-12-19T14:28:14.431Z,7.53
2022-12-19T14:28:17.073Z,7.27
2022-12-19T14:30:57.787Z,6.90
2022-12-19T14:33:45.774Z,6.70
2022-12-19T14:36:25.712Z,8.37
2022-12-19T14:39:22.830Z,6.57
2022-12-19T14:42:04.644Z,6.77
2022-12-19T14:52:51.730Z,5.75
2022-12-19T14:53:52.336Z,5.95
2022-12-19T15:02:10.511Z,5.10
2022-12-19T15:04:50.919Z,5.40
2022-12-19T15:07:27.330Z,5.22
2022-12-19T15:11:06.813Z,5.00
2022-12-19T15:14:49.362Z,5.22
2022-12-19T15:16:07.419Z,5.80
2022-12-19T15:18:34.339Z,5.47
2022-12-19T15:21:08.047Z,5.22
2022-12-19T15:23:34.739Z,5.53
2022-12-19T15:26:06.483Z,5.35
2022-12-19T15:28:51.897Z,5.28
2022-12-19T15:31:29.946Z,4.65
2022-12-19T15:36:43.629Z,5.05
2022-12-19T15:39:10.178Z,5.03
2022-12-19T15:41:36.920Z,5.18
2022-12-19T15:44:16.077Z,4.90
2022-12-19T15:46:48.413Z,5.93
2022-12-19T15:49:20.788Z,5.50
2022-12-19T15:51:48.264Z,5.47
2022-12-19T15:54:47.083Z,5.75
2022-12-19T15:57:01.687Z,5.25
2022-12-19T15:59:37.553Z,6.15
2022-12-19T16:02:15.880Z,6.55
2022-12-19T16:04:42.946Z,6.95
2022-12-19T16:07:25.725Z,7.22
2022-12-19T16:09:52.513Z,7.63
2022-12-19T16:12:23.889Z,7.63
2022-12-19T16:14:58.051Z,7.93
2022-12-19T16:17:27.131Z,7.85
2022-12-19T16:19:53.950Z,7.33
2022-12-19T16:22:23.585Z,8.00
2022-12-19T16:24:52.070Z,8.32
2022-12-19T16:27:28.519Z,8.53
2022-12-19T16:29:56.655Z,7.70
2022-12-19T16:32:26.508Z,7.57
2022-12-19T16:34:53.529Z,7.90
2022-12-19T16:37:20.454Z,8.07
2022-12-19T16:39:47.129Z,8.37
2022-12-19T16:42:15.959Z,7.78
2022-12-19T16:44:45.435Z,7.80
2022-12-19T16:47:17.790Z,8.17
2022-12-19T16:49:45.228Z,7.93
2022-12-19T16:52:12.048Z,7.95
2022-12-19T16:54:38.946Z,7.43
2022-12-19T16:57:14.064Z,6.78
2022-12-19T16:59:40.745Z,7.28
2022-12-19T17:02:39.895Z,7.03
2022-12-19T17:05:08.319Z,6.37
2022-12-19T17:07:35.201Z,5.93
2022-12-19T17:10:01.799Z,6.75
2022-12-19T17:12:28.815Z,6.15
2022-12-19T17:14:55.399Z,6.00
2022-12-19T17:17:22.000Z,6.35
2022-12-19T17:19:48.601Z,5.53
2022-12-19T17:22:17.217Z,6.47
2022-12-19T17:24:46.621Z,5.75
2022-12-19T17:27:13.367Z,5.65
2022-12-19T17:29:40.185Z,5.00
2022-12-19T17:32:09.081Z,5.20
2022-12-19T17:34:36.152Z,5.40
2022-12-19T17:37:05.153Z,4.57
2022-12-19T17:39:34.449Z,4.55
2022-12-19T17:42:11.321Z,5.05
2022-12-19T17:44:38.140Z,4.25
2022-12-19T17:47:04.709Z,4.45
2022-12-19T17:49:32.866Z,4.60
2022-12-19T17:51:59.991Z,4.32
2022-12-19T17:54:27.269Z,4.15
2022-12-19T17:56:54.425Z,5.05
2022-12-19T17:59:21.125Z,4.60
2022-12-19T18:01:47.850Z,4.38
2022-12-19T18:04:18.427Z,4.47
2022-12-19T18:06:45.790Z,4.82
2022-12-19T18:09:23.424Z,3.78
2022-12-19T18:11:52.560Z,4.35
2022-12-19T18:14:19.433Z,4.30
2022-12-19T18:16:49.582Z,4.53
2022-12-19T18:19:19.747Z,4.50
2022-12-19T18:21:46.440Z,4.85
2022-12-19T18:24:16.370Z,4.78
2022-12-19T18:26:44.404Z,4.28
2022-12-19T18:29:11.433Z,4.63
2022-12-19T18:31:40.614Z,4.38
2022-12-19T18:34:19.527Z,4.35
2022-12-19T18:36:46.316Z,5.05
2022-12-19T18:39:28.086Z,4.97
2022-12-19T18:41:55.116Z,5.18
2022-12-19T18:44:24.636Z,5.13
2022-12-19T18:46:52.024Z,5.00
2022-12-19T18:49:19.144Z,4.88
2022-12-19T18:51:45.779Z,5.10
2022-12-19T18:54:17.541Z,4.75
2022-12-19T18:56:44.673Z,4.90
2022-12-19T18:59:11.227Z,4.70
2022-12-19T19:01:46.716Z,4.95
2022-12-19T19:04:17.775Z,5.38
2022-12-19T19:06:50.823Z,5.60
2022-12-19T19:09:20.326Z,5.10
2022-12-19T19:11:47.067Z,4.80
2022-12-19T19:14:13.805Z,5.70
2022-12-19T19:16:40.590Z,4.88
2022-12-19T19:19:10.792Z,5.55
2022-12-19T19:21:38.702Z,4.60
2022-12-19T19:24:15.167Z,4.68
2022-12-19T19:26:42.030Z,4.25
2022-12-19T19:29:10.010Z,4.10
2022-12-19T19:31:40.872Z,4.07
2022-12-19T19:34:16.878Z,3.30
2022-12-19T19:36:47.376Z,3.58
2022-12-19T19:39:14.079Z,3.78
2022-12-19T19:41:40.752Z,3.40
2022-12-19T19:44:07.501Z,3.78
2022-12-19T19:46:34.266Z,3.30
2022-12-19T19:49:00.835Z,3.83
2022-12-19T19:51:29.058Z,3.45
2022-12-19T19:53:55.926Z,3.65
2022-12-19T19:56:22.624Z,3.45
2022-12-19T19:58:49.195Z,3.38
2022-12-19T20:01:15.883Z,2.90
2022-12-19T20:03:44.627Z,3.20
2022-12-19T20:06:12.104Z,3.47
2022-12-19T20:08:39.966Z,3.20
2022-12-19T20:11:08.976Z,3.17
2022-12-19T20:13:35.886Z,3.70
2022-12-19T20:16:11.198Z,3.38
2022-12-19T20:18:40.556Z,2.97
2022-12-19T20:21:12.744Z,3.70
2022-12-19T20:23:40.550Z,3.30
2022-12-19T20:26:07.498Z,3.08
2022-12-19T20:28:34.881Z,3.30
2022-12-19T20:31:01.765Z,4.05
2022-12-19T20:33:28.371Z,3.20
2022-12-19T20:36:12.336Z,4.05
2022-12-19T20:38:38.972Z,4.18
2022-12-19T20:41:05.641Z,4.10
2022-12-19T20:43:32.653Z,3.90
2022-12-19T20:46:05.363Z,4.30
2022-12-19T20:48:32.537Z,4.57
2022-12-19T20:51:00.230Z,4.68
2022-12-19T20:53:27.414Z,4.75
2022-12-19T20:55:58.181Z,4.85
2022-12-19T20:58:26.667Z,5.00
2022-12-19T21:01:17.723Z,4.53
2022-12-19T21:03:45.303Z,5.45
2022-12-19T21:06:15.653Z,4.78
2022-12-19T21:08:42.597Z,4.82
2022-12-19T21:11:09.830Z,5.10
2022-12-19T21:13:38.055Z,6.95
2022-12-19T21:16:09.913Z,5.32
2022-12-19T21:18:39.060Z,5.10
2022-12-19T21:21:07.243Z,4.90
2022-12-19T21:23:34.072Z,4.70
2022-12-19T21:26:02.968Z,4.00
2022-12-19T21:28:29.749Z,4.13
2022-12-19T21:30:58.982Z,4.55
2022-12-19T21:33:26.561Z,4.70
2022-12-19T21:35:53.311Z,4.00
2022-12-19T21:38:19.969Z,4.68
2022-12-19T21:40:46.603Z,4.35
2022-12-19T21:43:13.248Z,4.28
2022-12-19T21:45:40.408Z,5.28
2022-12-19T21:48:07.078Z,5.30
2022-12-19T21:50:34.023Z,6.07
2022-12-19T21:53:01.121Z,5.57
2022-12-19T21:55:27.720Z,5.00
2022-12-19T21:57:54.300Z,4.90
2022-12-19T22:00:21.023Z,4.90
2022-12-19T22:03:12.217Z,4.63
2022-12-19T22:05:35.149Z,5.50
2022-12-19T22:08:01.736Z,5.18
2022-12-19T22:10:28.282Z,5.03
2022-12-19T22:12:54.808Z,6.07
2022-12-19T22:15:21.365Z,5.65
2022-12-19T22:17:47.958Z,6.18
2022-12-19T22:20:14.704Z,5.82
2022-12-19T22:22:41.345Z,6.30
2022-12-19T22:25:08.238Z,6.18
2022-12-19T22:27:34.989Z,6.00
2022-12-19T22:30:08.508Z,5.95
2022-12-19T22:32:37.022Z,6.35
2022-12-19T22:35:04.289Z,6.28
2022-12-19T22:37:30.869Z,6.13
2022-12-19T22:40:00.185Z,6.25
2022-12-19T22:42:27.938Z,6.68
2022-12-19T22:44:54.474Z,6.75
2022-12-19T22:47:21.052Z,6.03
2022-12-19T22:49:52.099Z,6.75
2022-12-19T22:52:18.868Z,6.45
2022-12-19T22:54:45.428Z,6.53
2022-12-19T22:57:12.323Z,6.65
2022-12-19T22:59:38.858Z,6.88
2022-12-19T23:02:05.617Z,7.20
2022-12-19T23:04:32.292Z,7.25
2022-12-19T23:06:58.870Z,7.75
2022-12-19T23:09:25.407Z,7.32
2022-12-19T23:11:52.185Z,7.45
2022-12-19T23:14:19.831Z,6.57
2022-12-19T23:16:46.840Z,7.15
2022-12-19T23:19:15.605Z,7.15
2022-12-19T23:21:42.177Z,7.53
2022-12-19T23:24:08.836Z,7.97
2022-12-19T23:26:37.424Z,8.30
2022-12-19T23:29:10.045Z,8.88
2022-12-19T23:31:39.470Z,9.35
2022-12-19T23:34:06.272Z,8.95
2022-12-19T23:37:09.017Z,8.45
2022-12-19T23:39:19.563Z,9.15
2022-12-19T23:41:46.164Z,9.30
2022-12-19T23:44:12.839Z,9.93
2022-12-19T23:46:40.200Z,10.05
2022-12-19T23:49:06.855Z,10.63
2022-12-19T23:51:33.914Z,9.88
2022-12-19T23:54:00.458Z,10.20
2022-12-19T23:56:30.279Z,11.40
2022-12-19T23:58:57.418Z,10.63
